createdAt,value
2022-11-24T00:01:25.760Z,6.45
2022-11-24T00:04:00.384Z,6.46
2022-11-24T00:06:29.049Z,6.50
2022-11-24T00:08:56.973Z,6.49
2022-11-24T00:11:32.747Z,6.53
2022-11-24T00:14:00.485Z,6.57
2022-11-24T00:16:34.267Z,6.53
2022-11-24T00:19:04.783Z,6.52
2022-11-24T00:21:32.282Z,6.52
2022-11-24T00:23:59.802Z,6.48
2022-11-24T00:26:32.868Z,6.50
2022-11-24T00:29:02.948Z,6.59
2022-11-24T00:31:36.260Z,6.52
2022-11-24T00:34:06.897Z,6.50
2022-11-24T00:36:35.616Z,6.53
2022-11-24T00:39:14.580Z,6.48
2022-11-24T00:41:42.840Z,6.47
2022-11-24T00:44:09.415Z,6.43
2022-11-24T00:46:36.311Z,6.47
2022-11-24T00:49:03.136Z,6.47
2022-11-24T00:51:30.419Z,6.45
2022-11-24T00:53:58.868Z,6.44
2022-11-24T00:56:29.623Z,6.35
2022-11-24T00:58:56.275Z,6.38
2022-11-24T01:01:27.038Z,6.39
2022-11-24T01:03:55.236Z,6.37
2022-11-24T01:06:25.279Z,6.37
2022-11-24T01:08:52.557Z,6.44
2022-11-24T01:11:29.230Z,6.47
2022-11-24T01:13:59.217Z,6.14
2022-11-24T01:16:31.857Z,6.30
2022-11-24T01:18:58.314Z,6.24
2022-11-24T01:21:24.765Z,6.32
2022-11-24T01:23:51.351Z,6.44
2022-11-24T01:26:21.484Z,6.49
2022-11-24T01:28:57.009Z,6.53
2022-11-24T01:31:25.546Z,6.59
2022-11-24T01:33:53.246Z,6.54
2022-11-24T01:36:20.806Z,6.53
2022-11-24T01:38:47.405Z,6.59
2022-11-24T01:41:18.411Z,6.61
2022-11-24T01:43:46.334Z,6.70
2022-11-24T01:46:41.790Z,6.62
2022-11-24T01:49:08.161Z,6.60
2022-11-24T01:51:42.984Z,6.47
2022-11-24T01:54:20.543Z,6.25
2022-11-24T01:56:54.009Z,6.07
2022-11-24T01:59:21.878Z,5.94
2022-11-24T02:01:52.703Z,5.86
2022-11-24T02:04:26.141Z,5.79
2022-11-24T02:06:55.870Z,5.75
2022-11-24T02:09:35.892Z,5.71
2022-11-24T02:12:02.770Z,5.63
2022-11-24T02:14:29.737Z,5.56
2022-11-24T02:16:56.296Z,5.54
2022-11-24T02:19:40.178Z,5.43
2022-11-24T02:23:07.180Z,5.31
2022-11-24T02:25:53.486Z,5.36
2022-11-24T02:28:23.814Z,5.30
2022-11-24T02:30:51.406Z,5.27
2022-11-24T02:33:21.718Z,5.18
2022-11-24T02:35:48.367Z,5.17
2022-11-24T02:38:15.070Z,5.29
2022-11-24T02:40:47.805Z,5.30
2022-11-24T02:43:22.427Z,5.27
2022-11-24T02:45:49.201Z,5.23
2022-11-24T02:48:16.592Z,5.26
2022-11-24T02:50:43.389Z,5.15
2022-11-24T02:53:09.906Z,5.16
2022-11-24T02:55:36.359Z,5.14
2022-11-24T02:58:02.954Z,5.19
2022-11-24T03:00:29.427Z,5.23
2022-11-24T03:02:55.896Z,5.13
2022-11-24T03:05:22.522Z,5.08
2022-11-24T03:07:49.046Z,4.97
2022-11-24T03:10:16.582Z,4.94
2022-11-24T03:12:43.176Z,5.03
2022-11-24T03:15:10.354Z,5.09
2022-11-24T03:17:36.912Z,5.07
2022-11-24T03:20:05.114Z,5.02
2022-11-24T03:22:32.098Z,4.96
2022-11-24T03:24:59.179Z,5.03
2022-11-24T03:27:25.719Z,5.07
2022-11-24T03:29:52.146Z,5.14
2022-11-24T03:32:18.721Z,5.10
2022-11-24T03:34:45.144Z,5.14
2022-11-24T03:37:11.890Z,5.13
2022-11-24T03:39:38.427Z,5.12
2022-11-24T03:42:04.961Z,4.98
2022-11-24T03:44:31.621Z,4.88
2022-11-24T03:46:58.248Z,4.78
2022-11-24T03:49:24.688Z,4.70
2022-11-24T03:51:51.145Z,4.66
2022-11-24T03:54:17.584Z,4.61
2022-11-24T03:56:44.010Z,4.61
2022-11-24T03:59:10.503Z,4.60
2022-11-24T04:01:37.006Z,4.50
2022-11-24T04:04:03.497Z,4.57
2022-11-24T04:06:29.976Z,4.60
2022-11-24T04:08:56.424Z,4.70
2022-11-24T04:11:41.660Z,4.77
2022-11-24T04:14:13.308Z,4.71
2022-11-24T04:16:40.325Z,4.80
2022-11-24T04:19:06.952Z,4.97
2022-11-24T04:21:33.390Z,5.08
2022-11-24T04:23:59.824Z,5.05
2022-11-24T04:26:26.285Z,5.15
2022-11-24T04:28:52.718Z,5.18
2022-11-24T04:31:19.282Z,5.24
2022-11-24T04:33:45.767Z,5.28
2022-11-24T04:36:12.354Z,5.30
2022-11-24T04:39:25.672Z,5.27
2022-11-24T04:41:25.253Z,5.26
2022-11-24T04:43:51.751Z,5.31
2022-11-24T04:46:18.479Z,5.39
2022-11-24T04:48:45.019Z,5.42
2022-11-24T04:51:14.190Z,5.50
2022-11-24T04:53:40.794Z,5.60
2022-11-24T04:56:08.125Z,5.66
2022-11-24T04:58:34.868Z,5.69
2022-11-24T05:01:01.399Z,5.62
2022-11-24T05:03:27.928Z,5.71
2022-11-24T05:05:54.354Z,5.81
2022-11-24T05:08:20.860Z,5.90
2022-11-24T05:10:47.278Z,5.96
2022-11-24T05:13:13.885Z,6.00
2022-11-24T05:15:42.163Z,6.09
2022-11-24T05:18:13.361Z,6.17
2022-11-24T05:20:39.851Z,6.26
2022-11-24T05:23:08.558Z,6.22
2022-11-24T05:25:36.516Z,6.22
2022-11-24T05:28:08.652Z,6.29
2022-11-24T05:30:38.592Z,6.38
2022-11-24T05:33:12.274Z,6.26
2022-11-24T05:35:38.878Z,6.22
2022-11-24T05:38:05.381Z,6.15
2022-11-24T05:40:32.355Z,6.19
2022-11-24T05:42:59.480Z,6.29
2022-11-24T05:45:26.145Z,6.37
2022-11-24T05:47:53.234Z,6.27
2022-11-24T05:50:22.713Z,6.30
2022-11-24T05:52:50.218Z,6.41
2022-11-24T05:55:19.350Z,6.39
2022-11-24T05:57:46.101Z,6.36
2022-11-24T06:00:14.875Z,6.42
2022-11-24T06:02:41.621Z,6.49
2022-11-24T06:05:09.072Z,6.53
2022-11-24T06:07:35.642Z,6.56
2022-11-24T06:10:02.185Z,6.62
2022-11-24T06:12:28.615Z,6.55
2022-11-24T06:14:55.074Z,6.50
2022-11-24T06:17:21.581Z,6.57
2022-11-24T06:19:50.088Z,6.61
2022-11-24T06:22:17.532Z,6.64
2022-11-24T06:24:44.114Z,6.68
2022-11-24T06:27:10.588Z,6.72
2022-11-24T06:29:37.133Z,6.73
2022-11-24T06:32:04.091Z,6.75
2022-11-24T06:34:30.657Z,6.79
2022-11-24T06:36:57.329Z,6.85
2022-11-24T06:39:23.832Z,6.85
2022-11-24T06:41:50.965Z,6.88
2022-11-24T06:44:17.423Z,6.79
2022-11-24T06:46:44.172Z,6.78
2022-11-24T06:49:10.764Z,6.79
2022-11-24T06:51:37.290Z,6.85
2022-11-24T06:54:08.954Z,6.86
2022-11-24T06:56:36.145Z,6.98
2022-11-24T06:59:02.980Z,6.97
2022-11-24T07:01:30.571Z,6.98
2022-11-24T07:03:57.932Z,7.00
2022-11-24T07:06:26.249Z,7.00
2022-11-24T07:08:52.890Z,7.00
2022-11-24T07:11:23.818Z,6.98
2022-11-24T07:13:59.486Z,7.00
2022-11-24T07:16:27.784Z,6.96
2022-11-24T07:18:55.330Z,6.98
2022-11-24T07:21:24.700Z,7.05
2022-11-24T07:23:54.406Z,7.11
2022-11-24T07:26:22.972Z,7.14
2022-11-24T07:28:50.705Z,7.15
2022-11-24T07:31:24.899Z,7.18
2022-11-24T07:33:54.495Z,7.24
2022-11-24T07:36:22.642Z,7.22
2022-11-24T07:38:49.137Z,7.27
2022-11-24T07:41:19.501Z,7.31
2022-11-24T07:43:47.645Z,7.42
2022-11-24T07:46:16.919Z,7.50
2022-11-24T07:48:44.030Z,7.48
2022-11-24T07:51:10.508Z,7.45
2022-11-24T07:53:37.696Z,7.47
2022-11-24T07:56:06.462Z,7.45
2022-11-24T07:58:36.265Z,7.51
2022-11-24T08:01:17.672Z,7.50
2022-11-24T08:03:46.325Z,7.52
2022-11-24T08:06:25.067Z,7.47
2022-11-24T08:08:55.159Z,7.41
2022-11-24T08:11:22.010Z,7.47
2022-11-24T08:13:48.506Z,7.48
2022-11-24T08:16:18.755Z,7.50
2022-11-24T08:18:51.739Z,7.53
2022-11-24T08:21:18.701Z,7.61
2022-11-24T08:23:45.796Z,7.69
2022-11-24T08:26:17.630Z,7.67
2022-11-24T08:28:46.393Z,7.71
2022-11-24T08:31:21.143Z,7.70
2022-11-24T08:33:47.871Z,7.75
2022-11-24T08:36:18.856Z,7.68
2022-11-24T08:38:46.112Z,7.72
2022-11-24T08:41:16.418Z,7.75
2022-11-24T08:43:43.282Z,7.81
2022-11-24T08:46:14.180Z,7.90
2022-11-24T08:48:41.405Z,7.97
2022-11-24T08:51:11.765Z,8.06
2022-11-24T08:53:39.654Z,7.98
2022-11-24T08:56:07.505Z,7.98
2022-11-24T08:58:35.389Z,8.01
2022-11-24T09:01:13.147Z,8.00
2022-11-24T09:03:44.997Z,7.98
2022-11-24T09:06:17.953Z,7.69
2022-11-24T09:08:44.549Z,7.81
2022-11-24T09:11:15.449Z,7.89
2022-11-24T09:13:42.642Z,7.88
2022-11-24T09:16:16.793Z,7.95
2022-11-24T09:18:44.401Z,8.07
2022-11-24T09:21:21.917Z,8.06
2022-11-24T09:23:51.242Z,8.03
2022-11-24T09:26:25.469Z,7.97
2022-11-24T09:28:54.533Z,8.08
2022-11-24T09:31:25.714Z,8.18
2022-11-24T09:33:52.510Z,8.24
2022-11-24T09:36:20.864Z,8.21
2022-11-24T09:38:47.662Z,8.24
2022-11-24T09:41:31.962Z,8.28
2022-11-24T09:44:14.112Z,8.26
2022-11-24T09:47:02.098Z,8.31
2022-11-24T09:49:51.587Z,8.31
2022-11-24T09:52:54.652Z,8.37
2022-11-24T09:55:38.164Z,8.33
2022-11-24T09:58:40.446Z,8.27
2022-11-24T10:01:37.754Z,8.27
2022-11-24T10:04:16.292Z,8.37
2022-11-24T10:07:16.382Z,8.42
2022-11-24T10:10:29.044Z,8.43
2022-11-24T10:13:26.461Z,8.48
2022-11-24T10:16:19.980Z,8.46
2022-11-24T10:18:53.908Z,8.48
2022-11-24T10:21:49.504Z,8.44
2022-11-24T10:24:41.119Z,8.38
2022-11-24T10:27:19.744Z,8.28
2022-11-24T10:29:52.421Z,8.33
2022-11-24T10:32:31.990Z,8.41
2022-11-24T10:35:13.299Z,8.45
2022-11-24T10:37:51.154Z,8.46
2022-11-24T10:40:56.929Z,8.55
2022-11-24T10:43:28.289Z,8.45
2022-11-24T10:46:05.508Z,8.50
2022-11-24T10:48:45.533Z,8.42
2022-11-24T10:51:30.267Z,8.40
2022-11-24T10:54:14.762Z,8.42
2022-11-24T10:56:44.519Z,8.46
2022-11-24T10:59:35.051Z,8.35
2022-11-24T11:02:03.423Z,8.28
2022-11-24T11:04:35.644Z,8.26
2022-11-24T11:07:15.291Z,8.34
2022-11-24T11:09:41.810Z,8.43
2022-11-24T11:12:43.437Z,8.56
2022-11-24T11:15:29.858Z,8.52
2022-11-24T11:18:01.271Z,8.54
2022-11-24T11:20:32.553Z,8.66
2022-11-24T11:23:14.823Z,8.50
2022-11-24T11:25:41.430Z,8.60
2022-11-24T11:28:18.381Z,8.69
2022-11-24T11:31:22.483Z,8.60
2022-11-24T11:34:26.695Z,8.61
2022-11-24T11:36:56.268Z,8.84
2022-11-24T11:39:48.443Z,9.03
2022-11-24T11:45:35.437Z,9.19
2022-11-24T11:48:01.934Z,9.15
2022-11-24T11:51:24.822Z,9.14
2022-11-24T11:54:11.314Z,9.10
2022-11-24T11:56:45.065Z,9.07
2022-11-24T11:59:45.556Z,9.20
2022-11-24T12:02:47.165Z,9.48
2022-11-24T12:05:57.722Z,9.61
2022-11-24T12:09:18.209Z,9.50
2022-11-24T12:11:41.985Z,9.47
2022-11-24T12:14:20.097Z,9.36
2022-11-24T12:17:31.458Z,9.24
2022-11-24T12:20:14.571Z,9.17
2022-11-24T12:23:20.045Z,9.15
2022-11-24T12:26:28.387Z,9.21
2022-11-24T12:29:16.480Z,9.20
2022-11-24T12:32:16.185Z,9.21
2022-11-24T12:35:00.013Z,9.16
2022-11-24T12:37:54.785Z,9.28
2022-11-24T12:44:00.047Z,9.51
2022-11-24T12:46:56.272Z,9.55
2022-11-24T12:49:52.613Z,9.56
2022-11-24T12:52:48.101Z,9.64
2022-11-24T12:55:20.452Z,9.63
2022-11-24T12:58:22.139Z,9.66
2022-11-24T13:01:04.238Z,9.64
2022-11-24T13:03:51.052Z,9.71
2022-11-24T13:06:35.309Z,9.77
2022-11-24T13:09:13.225Z,9.82
2022-11-24T13:11:43.671Z,9.66
2022-11-24T13:14:30.589Z,9.45
2022-11-24T13:19:50.013Z,9.27
2022-11-24T13:22:25.438Z,9.24
2022-11-24T13:25:16.405Z,9.08
2022-11-24T13:27:48.305Z,8.98
2022-11-24T13:30:32.978Z,8.87
2022-11-24T13:33:16.217Z,8.78
2022-11-24T13:36:04.211Z,8.76
2022-11-24T13:38:46.158Z,8.71
2022-11-24T13:41:34.264Z,8.62
2022-11-24T13:44:15.915Z,8.43
2022-11-24T13:47:06.730Z,8.46
2022-11-24T13:49:48.763Z,8.38
2022-11-24T13:52:40.188Z,8.25
2022-11-24T13:55:12.621Z,8.19
2022-11-24T13:57:45.949Z,8.16
2022-11-24T14:00:28.164Z,8.14
2022-11-24T14:03:05.863Z,8.10
2022-11-24T14:05:45.915Z,8.11
2022-11-24T14:08:24.192Z,8.14
2022-11-24T14:10:53.768Z,8.15
2022-11-24T14:13:26.113Z,8.07
2022-11-24T14:16:04.157Z,7.89
2022-11-24T14:18:32.378Z,7.78
2022-11-24T14:21:19.882Z,7.83
2022-11-24T14:23:53.854Z,7.88
2022-11-24T14:26:34.213Z,7.86
2022-11-24T14:29:22.660Z,7.77
2022-11-24T14:32:06.144Z,7.76
2022-11-24T14:34:35.964Z,7.71
2022-11-24T14:37:02.789Z,7.68
2022-11-24T14:39:30.181Z,7.70
2022-11-24T14:42:15.573Z,7.69
2022-11-24T14:44:41.938Z,7.70
2022-11-24T14:47:30.149Z,7.67
2022-11-24T14:50:07.550Z,7.66
2022-11-24T14:52:35.250Z,7.61
2022-11-24T14:55:21.374Z,7.52
2022-11-24T14:57:48.408Z,7.35
2022-11-24T15:00:46.082Z,7.23
2022-11-24T15:03:19.387Z,6.77
2022-11-24T15:05:59.427Z,6.97
2022-11-24T15:08:31.508Z,7.02
2022-11-24T15:11:02.137Z,6.97
2022-11-24T15:13:36.973Z,6.86
2022-11-24T15:16:15.908Z,6.67
2022-11-24T15:19:01.009Z,6.70
2022-11-24T15:21:36.774Z,6.63
2022-11-24T15:24:19.153Z,6.61
2022-11-24T15:26:46.965Z,6.74
2022-11-24T15:29:13.514Z,6.80
2022-11-24T15:31:41.866Z,6.91
2022-11-24T15:34:14.025Z,6.98
2022-11-24T15:36:40.514Z,6.89
2022-11-24T15:39:07.026Z,6.82
2022-11-24T15:41:33.883Z,6.78
2022-11-24T15:44:00.478Z,6.63
2022-11-24T15:46:29.632Z,6.44
2022-11-24T15:48:57.138Z,6.31
2022-11-24T15:51:26.576Z,6.21
2022-11-24T15:54:00.628Z,6.19
2022-11-24T15:56:34.609Z,6.01
2022-11-24T15:59:04.151Z,6.08
2022-11-24T16:01:33.750Z,6.06
2022-11-24T16:04:01.371Z,6.05
2022-11-24T16:06:27.933Z,6.00
2022-11-24T16:08:54.591Z,5.89
2022-11-24T16:11:22.041Z,5.70
2022-11-24T16:13:52.963Z,5.65
2022-11-24T16:16:22.238Z,5.61
2022-11-24T16:18:48.773Z,5.56
2022-11-24T16:21:15.276Z,5.58
2022-11-24T16:23:41.894Z,5.37
2022-11-24T16:26:09.879Z,5.35
2022-11-24T16:28:36.360Z,5.27
2022-11-24T16:31:02.916Z,5.25
2022-11-24T16:33:30.175Z,5.27
2022-11-24T16:35:56.813Z,5.15
2022-11-24T16:38:23.488Z,4.98
2022-11-24T16:40:56.182Z,4.93
2022-11-24T16:43:24.280Z,4.93
2022-11-24T16:46:16.871Z,4.80
2022-11-24T16:48:45.425Z,4.75
2022-11-24T16:51:13.462Z,4.80
2022-11-24T16:53:40.844Z,4.90
2022-11-24T16:56:08.378Z,4.82
2022-11-24T16:58:38.388Z,4.78
2022-11-24T17:01:11.432Z,4.79
2022-11-24T17:03:39.408Z,4.78
2022-11-24T17:06:12.001Z,4.63
2022-11-24T17:08:41.061Z,4.64
2022-11-24T17:11:09.472Z,4.60
2022-11-24T17:13:36.351Z,4.57
2022-11-24T17:16:05.535Z,4.55
2022-11-24T17:18:33.328Z,4.47
2022-11-24T17:21:07.838Z,4.39
2022-11-24T17:23:35.852Z,4.30
2022-11-24T17:26:07.150Z,4.31
2022-11-24T17:28:35.479Z,4.33
2022-11-24T17:31:23.255Z,4.18
2022-11-24T17:33:52.896Z,4.23
2022-11-24T17:36:20.043Z,4.29
2022-11-24T17:38:46.769Z,4.28
2022-11-24T17:41:13.240Z,4.28
2022-11-24T17:43:39.905Z,4.24
2022-11-24T17:46:06.754Z,4.25
2022-11-24T17:48:35.639Z,4.20
2022-11-24T17:51:09.783Z,4.10
2022-11-24T17:53:37.543Z,4.14
2022-11-24T17:56:06.380Z,4.22
2022-11-24T17:58:41.306Z,4.24
2022-11-24T18:01:11.283Z,4.22
2022-11-24T18:03:41.833Z,4.17
2022-11-24T18:06:11.978Z,4.07
2022-11-24T18:08:41.913Z,4.07
2022-11-24T18:11:15.960Z,3.94
2022-11-24T18:14:01.028Z,3.91
2022-11-24T18:16:33.341Z,3.79
2022-11-24T18:19:11.473Z,3.85
2022-11-24T18:21:40.788Z,3.88
2022-11-24T18:24:12.526Z,3.94
2022-11-24T18:26:42.936Z,3.98
2022-11-24T18:29:11.481Z,3.96
2022-11-24T18:31:39.058Z,3.86
2022-11-24T18:34:06.713Z,3.61
2022-11-24T18:36:34.877Z,3.63
2022-11-24T18:39:06.920Z,3.64
2022-11-24T18:41:34.142Z,3.60
2022-11-24T18:44:07.817Z,3.47
2022-11-24T18:46:34.751Z,3.45
2022-11-24T18:49:01.388Z,3.53
2022-11-24T18:51:28.290Z,3.60
2022-11-24T18:53:55.292Z,3.59
2022-11-24T18:56:21.886Z,3.53
2022-11-24T18:58:51.872Z,3.54
2022-11-24T19:01:22.465Z,3.46
2022-11-24T19:03:53.607Z,3.50
2022-11-24T19:06:33.338Z,3.52
2022-11-24T19:09:07.342Z,3.59
2022-11-24T19:11:38.564Z,3.69
2022-11-24T19:14:08.460Z,3.58
2022-11-24T19:16:36.215Z,3.25
2022-11-24T19:19:03.907Z,3.28
2022-11-24T19:21:32.980Z,3.26
2022-11-24T19:24:05.075Z,3.30
2022-11-24T19:26:34.820Z,3.32
2022-11-24T19:29:01.674Z,3.38
2022-11-24T19:31:28.269Z,3.40
2022-11-24T19:33:55.299Z,3.34
2022-11-24T19:36:23.042Z,3.32
2022-11-24T19:38:53.555Z,3.30
2022-11-24T19:41:23.329Z,3.10
2022-11-24T19:43:49.921Z,3.00
2022-11-24T19:46:18.588Z,2.98
2022-11-24T19:48:50.178Z,2.92
2022-11-24T19:51:20.324Z,2.76
2022-11-24T19:53:47.573Z,2.72
2022-11-24T19:56:18.899Z,2.68
2022-11-24T19:58:46.858Z,2.77
2022-11-24T20:01:24.602Z,2.77
2022-11-24T20:04:07.947Z,2.67
2022-11-24T20:06:38.647Z,2.55
2022-11-24T20:09:08.547Z,2.69
2022-11-24T20:11:35.147Z,2.81
2022-11-24T20:14:02.285Z,2.86
2022-11-24T20:16:31.539Z,2.78
2022-11-24T20:19:12.547Z,2.69
2022-11-24T20:21:41.673Z,2.75
2022-11-24T20:24:17.266Z,2.75
2022-11-24T20:26:48.550Z,2.85
2022-11-24T20:29:16.394Z,2.98
2022-11-24T20:31:50.285Z,2.90
2022-11-24T20:34:18.196Z,2.97
2022-11-24T20:36:47.336Z,3.03
2022-11-24T20:39:21.787Z,3.07
2022-11-24T20:41:49.406Z,3.03
2022-11-24T20:44:19.598Z,2.80
2022-11-24T20:46:46.575Z,2.73
2022-11-24T20:49:19.250Z,2.69
2022-11-24T20:51:49.994Z,2.61
2022-11-24T20:54:18.226Z,2.46
2022-11-24T20:56:46.363Z,2.43
2022-11-24T20:59:21.462Z,2.33
2022-11-24T21:01:50.005Z,2.38
2022-11-24T21:04:21.658Z,2.43
2022-11-24T21:06:48.673Z,2.33
2022-11-24T21:09:15.314Z,2.24
2022-11-24T21:11:42.101Z,2.18
2022-11-24T21:14:09.585Z,2.21
2022-11-24T21:16:39.150Z,2.24
2022-11-24T21:19:18.104Z,2.20
2022-11-24T21:21:44.777Z,2.21
2022-11-24T21:24:14.768Z,2.21
2022-11-24T21:26:43.389Z,2.29
2022-11-24T21:29:14.064Z,2.23
2022-11-24T21:31:41.449Z,2.21
2022-11-24T21:34:09.435Z,2.00
2022-11-24T21:36:39.962Z,1.94
2022-11-24T21:39:07.190Z,1.89
2022-11-24T21:41:34.242Z,1.75
2022-11-24T21:44:01.189Z,1.65
2022-11-24T21:46:39.019Z,1.71
2022-11-24T21:49:07.217Z,1.79
2022-11-24T21:51:33.744Z,1.84
2022-11-24T21:54:00.257Z,1.91
2022-11-24T21:56:26.757Z,1.98
2022-11-24T21:58:56.641Z,2.02
2022-11-24T22:01:27.921Z,2.11
2022-11-24T22:03:55.283Z,2.16
2022-11-24T22:06:22.054Z,1.89
2022-11-24T22:08:50.623Z,1.82
2022-11-24T22:11:21.270Z,1.79
2022-11-24T22:13:49.149Z,1.86
2022-11-24T22:16:20.097Z,1.82
2022-11-24T22:18:47.627Z,1.76
2022-11-24T22:21:29.187Z,1.64
2022-11-24T22:23:55.708Z,1.38
2022-11-24T22:26:24.032Z,1.35
2022-11-24T22:28:51.595Z,1.30
2022-11-24T22:31:23.047Z,1.23
2022-11-24T22:33:51.405Z,1.16
2022-11-24T22:36:23.081Z,1.09
2022-11-24T22:38:55.992Z,1.07
2022-11-24T22:41:23.322Z,1.22
2022-11-24T22:43:50.283Z,1.23
2022-11-24T22:46:23.341Z,1.36
2022-11-24T22:48:54.609Z,1.41
2022-11-24T22:51:24.924Z,1.43
2022-11-24T22:53:55.395Z,1.29
2022-11-24T22:56:23.059Z,1.32
2022-11-24T22:58:50.882Z,1.23
2022-11-24T23:01:21.619Z,1.09
2022-11-24T23:03:49.040Z,1.13
2022-11-24T23:06:20.244Z,1.10
2022-11-24T23:08:47.241Z,1.08
2022-11-24T23:11:21.329Z,1.03
2022-11-24T23:13:53.925Z,1.08
2022-11-24T23:16:21.051Z,1.16
2022-11-24T23:18:53.792Z,1.23
2022-11-24T23:21:30.880Z,1.31
2022-11-24T23:23:59.660Z,0.92
2022-11-24T23:26:36.407Z,1.03
2022-11-24T23:29:04.710Z,1.23
2022-11-24T23:31:31.636Z,1.30
2022-11-24T23:34:00.817Z,1.29
2022-11-24T23:36:28.765Z,1.25
2022-11-24T23:38:55.684Z,1.31
2022-11-24T23:41:25.632Z,1.27
2022-11-24T23:43:52.623Z,1.12
2022-11-24T23:46:23.194Z,0.98
2022-11-24T23:48:52.162Z,0.89
2022-11-24T23:51:31.343Z,0.82
2022-11-24T23:53:59.410Z,0.97
2022-11-24T23:56:32.279Z,1.08
2022-11-24T23:59:00.262Z,1.22
